Time;durP1;ratioP1;P1;durP2;ratioP2;P2;SDS_P1;SDS_P2;PMS_P1;PMS_P2;Temp;Humidity;BMP_temperature;BMP_pressure;BME280_temperature;BME280_humidity;BME280_pressure;Samples;Min_cycle;Max_cycle;Signal;HPM_P1;HPM_P2
2022/01/06 00:00:25;;;;;;;;;;;;;;;11.24;61.92;101160.59;1058968;27;704;-60
2022/01/06 00:01:16;;;;;;;;;;;;;;;11.24;62.67;101160.59;1057617;28;862;-60
2022/01/06 00:02:07;;;;;;;;;;;;;;;11.23;62.62;101153.56;1057832;28;617;-60
2022/01/06 00:02:57;;;;;;;;;;;;;;;11.24;62.31;101163.28;1058422;28;730;-60
2022/01/06 00:03:48;;;;;;;;;;;;;;;11.23;62.47;101161.56;1057694;28;637;-60
2022/01/06 00:04:38;;;;;;;;;;;;;;;11.22;62.56;101167.00;1057747;28;736;-59
2022/01/06 00:05:28;;;;;;;;;;;;;;;11.21;62.25;101157.28;1057592;28;863;-60
2022/01/06 00:06:20;;;;;;;;;;;;;;;11.22;62.40;101153.66;1057810;28;913;-60
2022/01/06 00:07:11;;;;;;;;;;;;;;;11.22;62.27;101159.84;1057905;28;895;-60
2022/01/06 00:08:02;;;;;;;;;;;;;;;11.22;62.65;101162.50;1059066;27;691;-59
2022/01/06 00:08:55;;;;;;;;;;;;;;;11.23;62.28;101163.38;1057716;28;635;-60
2022/01/06 00:09:47;;;;;;;;;;;;;;;11.22;62.57;101164.31;1057707;28;677;-60
2022/01/06 00:10:38;;;;;;;;;;;;;;;11.20;61.97;101169.75;1057722;28;624;-60
2022/01/06 00:11:29;;;;;;;;;;;;;;;11.19;62.30;101173.38;1057578;28;1905;-60
2022/01/06 00:12:24;;;;;;;;;;;;;;;11.19;62.69;101176.03;1057692;28;595;-60
2022/01/06 00:13:18;;;;;;;;;;;;;;;11.21;62.63;101173.28;1057837;28;617;-59
2022/01/06 00:14:59;;;;;;;;;;;;;;;11.21;62.34;101171.47;1057876;28;711;-60
2022/01/06 00:17:37;;;;;;;;;;;;;;;11.23;61.99;101174.91;1058845;28;652;-60
2022/01/06 00:23:04;;;;;;;;;;;;;;;11.24;62.21;101173.94;1057656;28;605;-60
2022/01/06 00:24:02;;;;;;;;;;;;;;;11.28;62.09;101179.94;1054042;28;822;-60
2022/01/06 00:24:52;;;;;;;;;;;;;;;11.27;62.19;101181.75;1053957;28;621;-60
2022/01/06 00:25:42;;;;;;;;;;;;;;;11.27;61.89;101173.75;1053932;28;703;-59
2022/01/06 00:26:33;;;;;;;;;;;;;;;11.27;62.11;101179.09;1054050;28;801;-60
2022/01/06 00:27:23;;;;;;;;;;;;;;;11.27;62.20;101167.56;1053964;28;845;-60
2022/01/06 00:28:14;;;;;;;;;;;;;;;11.27;62.14;101171.09;1053423;28;910;-60
2022/01/06 00:29:04;;;;;;;;;;;;;;;11.27;62.18;101172.91;1053738;28;720;-59
2022/01/06 00:29:54;;;;;;;;;;;;;;;11.26;62.09;101166.72;1053549;28;680;-59
2022/01/06 00:30:45;;;;;;;;;;;;;;;11.27;62.05;101173.75;1054185;28;608;-60
2022/01/06 00:31:35;;;;;;;;;;;;;;;11.27;62.21;101170.22;1053388;28;1897;-60
2022/01/06 00:32:26;;;;;;;;;;;;;;;11.27;62.31;101175.56;1054008;28;928;-60
2022/01/06 00:33:16;;;;;;;;;;;;;;;11.26;62.02;101179.19;1053807;28;724;-60
2022/01/06 00:34:10;;;;;;;;;;;;;;;11.27;62.12;101179.09;1053538;28;855;-59
2022/01/06 00:35:00;;;;;;;;;;;;;;;11.25;61.85;101178.31;1053485;28;618;-60
2022/01/06 00:35:51;;;;;;;;;;;;;;;11.25;62.01;101181.00;1054101;28;681;-59
2022/01/06 00:36:41;;;;;;;;;;;;;;;11.25;62.32;101183.66;1049957;28;1001;-59
2022/01/06 00:37:31;;;;;;;;;;;;;;;11.25;62.44;101186.34;1052269;28;858;-59
2022/01/06 00:38:24;;;;;;;;;;;;;;;11.25;62.53;101178.31;1053506;28;621;-59
2022/01/06 00:39:15;;;;;;;;;;;;;;;11.26;62.16;101184.53;1053624;28;684;-60
2022/01/06 00:40:05;;;;;;;;;;;;;;;11.25;62.40;101178.31;1053335;28;606;-59
2022/01/06 00:40:57;;;;;;;;;;;;;;;11.27;62.27;101178.22;1053345;28;828;-59
2022/01/06 00:41:48;;;;;;;;;;;;;;;11.26;62.23;101181.84;1053614;28;1252;-59
2022/01/06 00:42:39;;;;;;;;;;;;;;;11.24;61.80;101176.59;1053426;28;730;-60
2022/01/06 00:43:29;;;;;;;;;;;;;;;11.26;62.46;101188.03;1053441;28;622;-59
2022/01/06 00:44:20;;;;;;;;;;;;;;;11.25;62.14;101186.34;1053523;28;1268;-60
2022/01/06 00:45:10;;;;;;;;;;;;;;;11.25;62.16;101180.13;1053234;28;839;-58
2022/01/06 00:46:01;;;;;;;;;;;;;;;11.25;62.00;101185.47;1053451;28;672;-58
2022/01/06 00:46:51;;;;;;;;;;;;;;;11.24;62.23;101181.94;1054933;28;847;-58
2022/01/06 00:47:43;;;;;;;;;;;;;;;11.24;61.84;101179.28;1050454;28;1421;-58
2022/01/06 00:48:33;;;;;;;;;;;;;;;11.24;62.20;101179.28;1054651;28;581;-58
2022/01/06 00:49:24;;;;;;;;;;;;;;;11.25;61.79;101182.81;1054958;28;677;-58
2022/01/06 00:50:14;;;;;;;;;;;;;;;11.24;61.82;101181.94;1055020;28;621;-60
2022/01/06 00:51:05;;;;;;;;;;;;;;;11.25;62.01;101181.00;1054841;28;780;-58
2022/01/06 00:51:55;;;;;;;;;;;;;;;11.25;62.60;101178.31;1050242;28;712;-60
2022/01/06 00:52:46;;;;;;;;;;;;;;;11.25;62.26;101182.81;1049707;28;1300;-59
2022/01/06 00:53:36;;;;;;;;;;;;;;;11.24;62.44;101184.63;1053747;28;730;-58
2022/01/06 00:54:27;;;;;;;;;;;;;;;11.23;61.81;101177.56;1054837;28;660;-58
2022/01/06 00:55:17;;;;;;;;;;;;;;;11.24;62.08;101181.09;1054822;28;881;-59
2022/01/06 00:56:08;;;;;;;;;;;;;;;11.25;62.16;101182.81;1054906;28;809;-59
2022/01/06 00:56:58;;;;;;;;;;;;;;;11.24;62.25;101189.94;1054482;28;672;-59
2022/01/06 00:57:48;;;;;;;;;;;;;;;11.24;62.38;101181.09;1054352;28;844;-59
2022/01/06 00:58:39;;;;;;;;;;;;;;;11.25;62.10;101188.13;1054849;28;590;-59
2022/01/06 00:59:29;;;;;;;;;;;;;;;11.25;61.82;101190.81;1054290;28;736;-59
2022/01/06 01:00:20;;;;;;;;;;;;;;;11.24;61.91;101191.75;1054337;28;781;-59
2022/01/06 01:01:10;;;;;;;;;;;;;;;11.23;62.16;101182.03;1054589;28;812;-59
2022/01/06 01:02:00;;;;;;;;;;;;;;;11.23;62.47;101185.56;1054539;28;867;-59
2022/01/06 01:02:51;;;;;;;;;;;;;;;11.24;62.08;101192.63;1054345;28;700;-59
2022/01/06 01:03:41;;;;;;;;;;;;;;;11.25;62.30;101194.34;1050656;28;760;-59
2022/01/06 01:04:32;;;;;;;;;;;;;;;11.27;61.79;101187.09;1053009;28;693;-59
2022/01/06 01:05:22;;;;;;;;;;;;;;;11.26;61.86;101187.19;1054269;28;701;-59
2022/01/06 01:06:12;;;;;;;;;;;;;;;11.26;62.00;101201.38;1054186;28;690;-59
2022/01/06 01:07:03;;;;;;;;;;;;;;;11.26;61.89;101197.84;1054277;28;660;-59
2022/01/06 01:07:53;;;;;;;;;;;;;;;11.25;61.62;101199.66;1054117;28;752;-59
2022/01/06 01:08:44;;;;;;;;;;;;;;;11.25;61.82;101197.00;1055285;28;605;-59
2022/01/06 01:09:34;;;;;;;;;;;;;;;11.24;62.32;101197.94;1054750;28;645;-59
2022/01/06 01:10:24;;;;;;;;;;;;;;;11.25;61.79;101194.34;1054666;28;762;-59
2022/01/06 01:11:15;;;;;;;;;;;;;;;11.25;61.45;101199.66;1054791;28;763;-59
2022/01/06 01:12:06;;;;;;;;;;;;;;;11.25;62.32;101205.00;1054316;28;852;-59
2022/01/06 01:12:56;;;;;;;;;;;;;;;11.24;61.95;101203.28;1054293;28;649;-59
2022/01/06 01:13:56;;;;;;;;;;;;;;;11.24;62.10;101205.97;1054781;28;632;-59
2022/01/06 01:14:57;;;;;;;;;;;;;;;11.23;62.41;101206.06;1054206;28;704;-59
2022/01/06 01:15:54;;;;;;;;;;;;;;;11.23;62.15;101216.72;1054301;28;656;-59
2022/01/06 01:16:53;;;;;;;;;;;;;;;11.23;62.43;101209.56;1054099;28;641;-59
2022/01/06 01:17:45;;;;;;;;;;;;;;;11.23;61.74;101214.91;1050548;28;609;-59
2022/01/06 01:18:36;;;;;;;;;;;;;;;11.24;62.42;101219.28;1055335;27;704;-59
2022/01/06 01:19:26;;;;;;;;;;;;;;;11.23;62.13;101212.25;1055277;28;653;-59
2022/01/06 01:20:16;;;;;;;;;;;;;;;11.25;62.13;101220.16;1055335;28;777;-60
2022/01/06 01:21:07;;;;;;;;;;;;;;;11.25;62.49;101220.16;1057005;28;1720;-59
2022/01/06 01:21:57;;;;;;;;;;;;;;;11.25;61.68;101218.34;1058509;28;684;-59
2022/01/06 01:22:48;;;;;;;;;;;;;;;11.27;62.25;101223.59;1057038;28;745;-59
2022/01/06 01:23:38;;;;;;;;;;;;;;;11.28;61.75;101220.81;1058374;28;925;-59
2022/01/06 01:24:28;;;;;;;;;;;;;;;11.26;62.16;101227.22;1058946;28;730;-59
2022/01/06 01:25:19;;;;;;;;;;;;;;;11.25;62.18;101229.00;1058333;28;730;-59
2022/01/06 01:26:09;;;;;;;;;;;;;;;11.28;62.29;101235.97;1059560;27;896;-59
2022/01/06 01:27:00;;;;;;;;;;;;;;;11.27;62.12;101229.78;1058296;28;807;-60
2022/01/06 01:27:54;;;;;;;;;;;;;;;11.27;62.14;101235.13;1054752;28;689;-59
2022/01/06 01:28:46;;;;;;;;;;;;;;;11.27;62.55;101232.44;1055214;28;743;-59
2022/01/06 01:29:51;;;;;;;;;;;;;;;11.28;62.08;101246.66;1058306;28;692;-59
2022/01/06 01:31:00;;;;;;;;;;;;;;;11.28;61.81;101234.16;1058349;28;774;-59
2022/01/06 01:31:53;;;;;;;;;;;;;;;11.28;62.10;101242.16;1058951;28;1964;-59
2022/01/06 01:32:50;;;;;;;;;;;;;;;11.27;61.69;101248.47;1058282;28;597;-59
2022/01/06 01:33:43;;;;;;;;;;;;;;;11.28;61.77;101244.84;1058920;28;645;-59
2022/01/06 01:34:33;;;;;;;;;;;;;;;11.29;61.95;101243.84;1058333;28;743;-60
2022/01/06 01:35:24;;;;;;;;;;;;;;;11.29;62.27;101249.19;1058284;28;652;-59
2022/01/06 01:36:14;;;;;;;;;;;;;;;11.29;62.16;101254.53;1057651;28;987;-60
2022/01/06 01:37:05;;;;;;;;;;;;;;;11.28;61.73;101262.66;1058260;28;800;-59
2022/01/06 01:37:55;;;;;;;;;;;;;;;11.26;62.11;101260.06;1058480;28;708;-59
2022/01/06 01:38:46;;;;;;;;;;;;;;;11.27;61.93;101259.13;1058220;28;680;-60
2022/01/06 01:39:36;;;;;;;;;;;;;;;11.28;61.59;101260.84;1058275;28;700;-59
2022/01/06 01:40:26;;;;;;;;;;;;;;;11.26;61.61;101257.41;1059464;27;871;-60
2022/01/06 01:41:17;;;;;;;;;;;;;;;11.28;62.13;101260.00;1058293;28;956;-60
2022/01/06 01:42:07;;;;;;;;;;;;;;;11.29;62.10;101256.34;1058472;28;621;-59
2022/01/06 01:42:58;;;;;;;;;;;;;;;11.27;62.43;101261.78;1058372;28;668;-59
2022/01/06 01:43:48;;;;;;;;;;;;;;;11.28;62.42;101266.19;1059513;27;676;-59
2022/01/06 01:44:38;;;;;;;;;;;;;;;11.26;62.22;101260.06;1059435;27;640;-59
2022/01/06 01:45:32;;;;;;;;;;;;;;;11.26;61.98;101261.88;1058311;28;696;-59
2022/01/06 01:46:28;;;;;;;;;;;;;;;11.26;62.13;101268.09;1058414;28;633;-59
2022/01/06 01:47:29;;;;;;;;;;;;;;;11.24;61.64;101261.97;1058304;28;807;-59
2022/01/06 01:48:25;;;;;;;;;;;;;;;11.23;61.91;101257.59;1053774;28;661;-59
2022/01/06 01:50:20;;;;;;;;;;;;;;;11.25;61.96;101258.38;1053532;28;681;-59
2022/01/06 01:51:10;;;;;;;;;;;;;;;11.25;62.29;101263.69;1053396;28;613;-59
2022/01/06 01:52:01;;;;;;;;;;;;;;;11.25;62.25;101253.03;1053559;28;860;-58
2022/01/06 01:52:52;;;;;;;;;;;;;;;11.25;61.93;101253.03;1053649;28;1246;-59
2022/01/06 01:53:42;;;;;;;;;;;;;;;11.25;62.01;101253.03;1053440;28;758;-59
2022/01/06 01:54:32;;;;;;;;;;;;;;;11.25;62.45;101258.38;1053385;28;621;-59
2022/01/06 01:55:23;;;;;;;;;;;;;;;11.26;61.94;101262.75;1054578;28;829;-59
2022/01/06 01:56:13;;;;;;;;;;;;;;;11.25;62.00;101263.69;1054744;28;765;-59
2022/01/06 01:57:04;;;;;;;;;;;;;;;11.25;62.15;101263.69;1053336;28;660;-58
2022/01/06 01:57:54;;;;;;;;;;;;;;;11.26;62.05;101257.41;1053542;28;723;-58
2022/01/06 01:58:45;;;;;;;;;;;;;;;11.26;62.23;101262.75;1054624;28;601;-59
2022/01/06 01:59:35;;;;;;;;;;;;;;;11.27;61.68;101266.28;1054565;28;729;-59
2022/01/06 02:00:26;;;;;;;;;;;;;;;11.27;61.92;101266.28;1053410;28;636;-58
2022/01/06 02:01:16;;;;;;;;;;;;;;;11.27;62.43;101266.28;1053670;28;645;-59
2022/01/06 02:02:08;;;;;;;;;;;;;;;11.25;62.06;101270.84;1053285;28;853;-59
2022/01/06 02:02:58;;;;;;;;;;;;;;;11.26;61.69;101264.56;1053628;28;644;-59
2022/01/06 02:03:48;;;;;;;;;;;;;;;11.24;61.99;101269.97;1053432;28;641;-58
2022/01/06 02:04:39;;;;;;;;;;;;;;;11.27;62.11;101276.94;1053428;28;669;-59
2022/01/06 02:05:29;;;;;;;;;;;;;;;11.24;62.14;101261.97;1053213;28;783;-58
2022/01/06 02:06:20;;;;;;;;;;;;;;;11.24;62.21;101261.97;1053279;28;1021;-58
2022/01/06 02:07:10;;;;;;;;;;;;;;;11.24;62.32;101267.31;1053632;28;751;-59
2022/01/06 02:08:01;;;;;;;;;;;;;;;11.26;62.24;101273.41;1053441;28;692;-59
2022/01/06 02:08:51;;;;;;;;;;;;;;;11.24;61.52;101272.66;1054622;28;727;-58
2022/01/06 02:09:42;;;;;;;;;;;;;;;11.25;61.77;101274.38;1052876;28;820;-59
2022/01/06 02:10:32;;;;;;;;;;;;;;;11.26;61.91;101277.91;1057136;28;775;-59
2022/01/06 02:11:23;;;;;;;;;;;;;;;11.25;61.50;101278.84;1057567;28;743;-58
2022/01/06 02:12:13;;;;;;;;;;;;;;;11.25;62.23;101274.38;1057056;28;1271;-59
2022/01/06 02:13:04;;;;;;;;;;;;;;;11.24;62.52;101272.66;1058191;28;687;-59
2022/01/06 02:13:58;;;;;;;;;;;;;;;11.25;62.49;101278.84;1058167;28;700;-58
2022/01/06 02:14:48;;;;;;;;;;;;;;;11.25;62.33;101278.84;1058147;28;1283;-60
2022/01/06 02:15:39;;;;;;;;;;;;;;;11.24;62.31;101283.31;1057722;28;676;-60
2022/01/06 02:16:30;;;;;;;;;;;;;;;11.23;61.84;101281.59;1057690;28;688;-60
2022/01/06 02:17:20;;;;;;;;;;;;;;;11.23;61.91;101278.94;1058159;28;773;-59
2022/01/06 02:18:11;;;;;;;;;;;;;;;11.23;62.12;101284.28;1057543;28;775;-59
2022/01/06 02:19:01;;;;;;;;;;;;;;;11.23;62.10;101281.59;1058088;28;870;-59
2022/01/06 02:19:52;;;;;;;;;;;;;;;11.23;62.39;101284.28;1058147;28;618;-60
2022/01/06 02:20:42;;;;;;;;;;;;;;;11.22;61.70;101279.88;1058784;28;850;-59
2022/01/06 02:21:33;;;;;;;;;;;;;;;11.23;62.43;101284.28;1050173;28;1363;-59
2022/01/06 02:22:23;;;;;;;;;;;;;;;11.25;62.46;101284.19;1049782;28;744;-60
2022/01/06 02:23:13;;;;;;;;;;;;;;;11.24;61.84;101280.66;1050874;28;882;-59
2022/01/06 02:24:04;;;;;;;;;;;;;;;11.25;62.23;101277.03;1050472;28;629;-60
2022/01/06 02:24:54;;;;;;;;;;;;;;;11.26;62.05;101280.56;1050300;28;941;-60
2022/01/06 02:25:45;;;;;;;;;;;;;;;11.26;62.11;101276.09;1050367;28;629;-60
2022/01/06 02:26:35;;;;;;;;;;;;;;;11.26;62.20;101281.41;1049767;28;675;-59
2022/01/06 02:27:25;;;;;;;;;;;;;;;11.28;62.00;101290.19;1050813;28;1274;-60
2022/01/06 02:28:16;;;;;;;;;;;;;;;11.26;61.94;101281.41;1050920;28;691;-60
2022/01/06 02:29:08;;;;;;;;;;;;;;;11.27;61.84;101280.47;1050808;28;878;-60
2022/01/06 02:29:58;;;;;;;;;;;;;;;11.28;62.19;101289.34;1050903;28;636;-60
2022/01/06 02:30:51;;;;;;;;;;;;;;;11.28;61.77;101289.34;1050893;28;762;-60
2022/01/06 02:31:41;;;;;;;;;;;;;;;11.27;61.61;101282.28;1050681;28;1959;-60
2022/01/06 02:32:32;;;;;;;;;;;;;;;11.27;62.05;101282.28;1050823;28;679;-60
2022/01/06 02:33:23;;;;;;;;;;;;;;;11.26;61.75;101280.56;1050717;28;804;-60
2022/01/06 02:34:14;;;;;;;;;;;;;;;11.25;62.26;101282.38;1050887;28;621;-61
2022/01/06 02:35:04;;;;;;;;;;;;;;;11.26;62.30;101284.09;1050809;28;622;-60
2022/01/06 02:35:55;;;;;;;;;;;;;;;11.26;62.29;101281.41;1050914;28;700;-60
2022/01/06 02:36:45;;;;;;;;;;;;;;;11.25;62.05;101281.50;1049824;28;685;-60
2022/01/06 02:37:36;;;;;;;;;;;;;;;11.28;62.13;101284.00;1050240;28;748;-60
2022/01/06 02:38:26;;;;;;;;;;;;;;;11.27;62.29;101287.63;1050180;28;645;-61
2022/01/06 02:39:16;;;;;;;;;;;;;;;11.27;62.12;101284.94;1050291;28;692;-61
2022/01/06 02:40:07;;;;;;;;;;;;;;;11.27;62.01;101293.81;1050888;28;645;-59
2022/01/06 02:40:58;;;;;;;;;;;;;;;11.27;62.04;101284.94;1050800;28;707;-60
2022/01/06 02:41:48;;;;;;;;;;;;;;;11.27;62.15;101285.81;1050205;28;849;-60
2022/01/06 02:42:38;;;;;;;;;;;;;;;11.26;61.97;101288.56;1050251;28;763;-60
2022/01/06 02:43:30;;;;;;;;;;;;;;;11.25;62.30;101286.84;1050814;28;606;-60
2022/01/06 02:44:23;;;;;;;;;;;;;;;11.25;61.87;101295.72;1050218;28;692;-60
2022/01/06 02:45:14;;;;;;;;;;;;;;;11.24;61.69;101291.31;1050789;28;784;-61
2022/01/06 02:46:04;;;;;;;;;;;;;;;11.25;61.82;101292.19;1050287;28;842;-60
2022/01/06 02:46:55;;;;;;;;;;;;;;;11.23;62.27;101292.28;1050832;28;684;-60
2022/01/06 02:47:45;;;;;;;;;;;;;;;11.25;61.50;101297.53;1053378;28;1271;-61
2022/01/06 02:48:36;;;;;;;;;;;;;;;11.23;61.65;101292.28;1054990;28;625;-60
2022/01/06 02:49:26;;;;;;;;;;;;;;;11.23;62.10;101292.28;1054443;28;661;-60
2022/01/06 02:50:16;;;;;;;;;;;;;;;11.23;62.31;101297.59;1054306;28;825;-60
2022/01/06 02:51:07;;;;;;;;;;;;;;;11.23;62.43;101296.75;1054413;28;643;-60
2022/01/06 02:51:57;;;;;;;;;;;;;;;11.25;62.49;101300.19;1054380;28;1960;-60
2022/01/06 02:52:48;;;;;;;;;;;;;;;11.24;61.50;101293.13;1054351;28;1219;-60
2022/01/06 02:53:38;;;;;;;;;;;;;;;11.23;62.08;101297.59;1054590;28;985;-60
2022/01/06 02:54:28;;;;;;;;;;;;;;;11.24;62.14;101303.81;1054291;28;934;-60
2022/01/06 02:55:19;;;;;;;;;;;;;;;11.24;61.76;101302.00;1054294;28;645;-60
2022/01/06 02:56:09;;;;;;;;;;;;;;;11.26;61.97;101307.25;1054466;28;724;-60
2022/01/06 02:57:02;;;;;;;;;;;;;;;11.26;62.00;101310.78;1050200;28;973;-60
2022/01/06 02:57:52;;;;;;;;;;;;;;;11.25;61.91;101306.38;1049673;28;728;-60
2022/01/06 02:58:42;;;;;;;;;;;;;;;11.25;61.70;101306.38;1053443;28;855;-60
2022/01/06 02:59:33;;;;;;;;;;;;;;;11.27;62.11;101303.63;1054299;28;624;-60
2022/01/06 03:00:23;;;;;;;;;;;;;;;11.27;61.58;101304.50;1054299;28;748;-60
2022/01/06 03:01:14;;;;;;;;;;;;;;;11.27;61.90;101306.28;1054401;28;713;-60
2022/01/06 03:02:04;;;;;;;;;;;;;;;11.26;61.81;101307.25;1053928;28;665;-61
2022/01/06 03:02:54;;;;;;;;;;;;;;;11.26;61.68;101304.56;1054355;28;787;-60
2022/01/06 03:03:45;;;;;;;;;;;;;;;11.25;62.25;101306.38;1054948;28;641;-60
2022/01/06 03:04:35;;;;;;;;;;;;;;;11.25;62.22;101313.53;1054889;28;758;-60
2022/01/06 03:05:26;;;;;;;;;;;;;;;11.25;61.84;101316.19;1054946;28;648;-60
2022/01/06 03:06:16;;;;;;;;;;;;;;;11.24;62.02;101306.47;1054210;28;1033;-60
2022/01/06 03:07:08;;;;;;;;;;;;;;;11.24;62.15;101304.66;1054365;28;856;-60
2022/01/06 03:07:58;;;;;;;;;;;;;;;11.23;61.97;101310.94;1053793;28;645;-60
2022/01/06 03:08:48;;;;;;;;;;;;;;;11.23;62.42;101313.63;1054799;28;920;-61
2022/01/06 03:09:41;;;;;;;;;;;;;;;11.24;61.75;101309.13;1054248;28;646;-61
2022/01/06 03:10:36;;;;;;;;;;;;;;;11.24;61.86;101311.81;1053680;28;637;-60
2022/01/06 03:11:26;;;;;;;;;;;;;;;11.23;62.25;101302.94;1053785;28;721;-60
2022/01/06 03:12:25;;;;;;;;;;;;;;;11.24;61.99;101310.00;1054850;28;629;-60
2022/01/06 03:13:15;;;;;;;;;;;;;;;11.23;61.85;101310.94;1053637;28;885;-60
2022/01/06 03:14:06;;;;;;;;;;;;;;;11.24;62.23;101309.13;1054358;28;677;-60
2022/01/06 03:14:56;;;;;;;;;;;;;;;11.24;62.26;101310.00;1054278;28;916;-60
2022/01/06 03:15:47;;;;;;;;;;;;;;;11.24;62.00;101309.13;1054375;28;658;-60
2022/01/06 03:16:37;;;;;;;;;;;;;;;11.24;62.08;101315.34;1054424;28;719;-60
2022/01/06 03:17:27;;;;;;;;;;;;;;;11.23;62.20;101313.63;1054826;28;866;-61
2022/01/06 03:18:18;;;;;;;;;;;;;;;11.23;62.00;101307.41;1054799;28;746;-60
2022/01/06 03:19:08;;;;;;;;;;;;;;;11.23;62.34;101312.75;1054307;28;843;-61
2022/01/06 03:19:59;;;;;;;;;;;;;;;11.23;61.70;101318.94;1050173;28;689;-60
2022/01/06 03:20:49;;;;;;;;;;;;;;;11.24;61.88;101314.47;1049647;28;716;-60
2022/01/06 03:21:40;;;;;;;;;;;;;;;11.22;62.05;101314.56;1053462;28;958;-60
2022/01/06 03:22:30;;;;;;;;;;;;;;;11.23;61.99;101318.94;1055438;27;630;-60
2022/01/06 03:23:20;;;;;;;;;;;;;;;11.24;61.45;101315.34;1054676;28;850;-60
2022/01/06 03:24:11;;;;;;;;;;;;;;;11.25;62.37;101311.72;1055616;28;942;-60
2022/01/06 03:25:01;;;;;;;;;;;;;;;11.26;62.18;101323.25;1055436;27;644;-60
2022/01/06 03:25:52;;;;;;;;;;;;;;;11.25;61.92;101322.38;1053632;28;778;-60
2022/01/06 03:26:42;;;;;;;;;;;;;;;11.26;61.75;101318.78;1055483;28;668;-60
2022/01/06 03:27:32;;;;;;;;;;;;;;;11.27;61.84;101315.16;1054800;28;741;-61
2022/01/06 03:28:23;;;;;;;;;;;;;;;11.26;61.82;101318.78;1055392;28;810;-60
2022/01/06 03:29:13;;;;;;;;;;;;;;;11.28;61.90;101316.88;1055418;28;711;-60
2022/01/06 03:30:04;;;;;;;;;;;;;;;11.27;61.63;101315.16;1055430;27;854;-60
2022/01/06 03:30:54;;;;;;;;;;;;;;;11.28;61.82;101314.22;1053748;28;688;-60
2022/01/06 03:31:45;;;;;;;;;;;;;;;11.27;62.09;101320.50;1055484;27;1958;-60
2022/01/06 03:32:35;;;;;;;;;;;;;;;11.26;61.79;101313.44;1054753;28;668;-60
2022/01/06 03:33:26;;;;;;;;;;;;;;;11.27;61.95;101317.81;1054826;28;629;-60
2022/01/06 03:34:16;;;;;;;;;;;;;;;11.26;62.40;101317.91;1055286;28;712;-61
2022/01/06 03:35:07;;;;;;;;;;;;;;;11.27;62.07;101315.16;1055505;27;652;-60
2022/01/06 03:35:57;;;;;;;;;;;;;;;11.26;61.99;101313.44;1055404;27;861;-60
2022/01/06 03:36:47;;;;;;;;;;;;;;;11.26;62.35;101317.91;1054945;28;743;-60
2022/01/06 03:37:38;;;;;;;;;;;;;;;11.27;61.61;101316.97;1055476;28;692;-60
2022/01/06 03:38:28;;;;;;;;;;;;;;;11.25;62.13;101322.38;1055257;27;703;-60
2022/01/06 03:39:19;;;;;;;;;;;;;;;11.24;61.91;101319.81;1055450;27;696;-60
2022/01/06 03:40:09;;;;;;;;;;;;;;;11.25;61.59;101321.53;1055316;27;919;-60
2022/01/06 03:41:00;;;;;;;;;;;;;;;11.25;61.68;101327.72;1055519;27;704;-60
2022/01/06 03:41:50;;;;;;;;;;;;;;;11.25;62.22;101322.38;1054880;28;668;-60
2022/01/06 03:42:40;;;;;;;;;;;;;;;11.23;61.94;101318.09;1054865;28;747;-60
2022/01/06 03:43:31;;;;;;;;;;;;;;;11.22;62.16;101325.25;1055348;27;664;-60
2022/01/06 03:44:21;;;;;;;;;;;;;;;11.22;62.16;101321.72;1055326;27;842;-61
2022/01/06 03:45:12;;;;;;;;;;;;;;;11.21;62.04;101320.84;1055550;27;782;-60
2022/01/06 03:46:02;;;;;;;;;;;;;;;11.20;62.49;101318.28;1053690;28;637;-60
2022/01/06 03:46:53;;;;;;;;;;;;;;;11.22;62.16;101321.72;1055228;27;660;-60
2022/01/06 03:47:43;;;;;;;;;;;;;;;11.22;62.28;101321.72;1053523;28;1357;-60
2022/01/06 03:48:34;;;;;;;;;;;;;;;11.22;62.06;101311.03;1054036;28;755;-60
2022/01/06 03:49:24;;;;;;;;;;;;;;;11.22;61.88;101325.25;1055328;27;643;-61
2022/01/06 03:50:15;;;;;;;;;;;;;;;11.21;61.94;101310.19;1054760;28;691;-60
2022/01/06 03:51:05;;;;;;;;;;;;;;;11.22;61.88;101322.56;1055448;27;646;-60
2022/01/06 03:51:55;;;;;;;;;;;;;;;11.22;62.04;101319.91;1055154;28;1897;-60
2022/01/06 03:52:46;;;;;;;;;;;;;;;11.23;61.63;101329.63;1055227;27;1320;-60
2022/01/06 03:53:36;;;;;;;;;;;;;;;11.24;62.01;101326.00;1054702;28;621;-60
2022/01/06 03:54:27;;;;;;;;;;;;;;;11.23;61.62;101318.94;1055312;27;636;-60
2022/01/06 03:55:17;;;;;;;;;;;;;;;11.25;61.98;101327.72;1053592;28;771;-61
2022/01/06 03:56:08;;;;;;;;;;;;;;;11.24;61.67;101330.47;1054916;28;613;-60
2022/01/06 03:56:59;;;;;;;;;;;;;;;11.25;61.74;101326.88;1055235;27;834;-61
2022/01/06 03:57:49;;;;;;;;;;;;;;;11.24;62.10;101331.34;1053614;28;778;-61
2022/01/06 03:58:40;;;;;;;;;;;;;;;11.24;61.55;101331.34;1055218;28;640;-60
2022/01/06 03:59:30;;;;;;;;;;;;;;;11.24;61.33;101334.00;1054701;28;711;-60
2022/01/06 04:00:21;;;;;;;;;;;;;;;11.24;61.87;101331.34;1054857;28;621;-60
2022/01/06 04:01:11;;;;;;;;;;;;;;;11.25;61.90;101326.88;1054687;28;976;-60
2022/01/06 04:02:02;;;;;;;;;;;;;;;11.24;62.14;101334.00;1054786;28;633;-60
2022/01/06 04:02:52;;;;;;;;;;;;;;;11.27;61.44;101330.31;1054755;28;700;-60
2022/01/06 04:03:45;;;;;;;;;;;;;;;11.27;61.87;101330.31;1054827;28;692;-60
2022/01/06 04:04:35;;;;;;;;;;;;;;;11.25;61.59;101327.72;1054678;28;656;-60
2022/01/06 04:05:26;;;;;;;;;;;;;;;11.27;62.13;101333.84;1053427;28;848;-60
2022/01/06 04:06:16;;;;;;;;;;;;;;;11.27;62.07;101338.31;1055177;27;1040;-61
2022/01/06 04:07:07;;;;;;;;;;;;;;;11.25;61.75;101338.41;1054614;28;738;-61
2022/01/06 04:07:57;;;;;;;;;;;;;;;11.27;61.79;101339.16;1054791;28;632;-61
2022/01/06 04:08:47;;;;;;;;;;;;;;;11.24;61.86;101336.69;1055188;28;660;-60
2022/01/06 04:09:38;;;;;;;;;;;;;;;11.25;61.56;101340.22;1054681;28;802;-60
2022/01/06 04:10:28;;;;;;;;;;;;;;;11.25;61.39;101343.72;1055148;27;733;-60
2022/01/06 04:11:19;;;;;;;;;;;;;;;11.24;62.24;101336.69;1055339;28;762;-60
2022/01/06 04:12:11;;;;;;;;;;;;;;;11.24;62.20;101339.34;1054717;28;716;-60
2022/01/06 04:13:01;;;;;;;;;;;;;;;11.25;61.63;101342.88;1054718;28;652;-60
2022/01/06 04:13:52;;;;;;;;;;;;;;;11.23;62.38;101339.44;1054848;28;843;-60
2022/01/06 04:14:42;;;;;;;;;;;;;;;11.22;62.11;101343.91;1054005;28;661;-60
2022/01/06 04:15:33;;;;;;;;;;;;;;;11.24;61.61;101344.69;1054703;28;838;-60
2022/01/06 04:16:25;;;;;;;;;;;;;;;11.23;62.26;101342.97;1054704;28;696;-60
2022/01/06 04:17:15;;;;;;;;;;;;;;;11.24;62.14;101347.34;1054200;28;752;-60
2022/01/06 04:18:06;;;;;;;;;;;;;;;11.25;62.03;101345.53;1055427;28;866;-60
2022/01/06 04:18:56;;;;;;;;;;;;;;;11.25;61.46;101343.72;1055185;28;825;-61
2022/01/06 04:19:47;;;;;;;;;;;;;;;11.24;62.08;101342.00;1053581;28;744;-60
2022/01/06 04:20:37;;;;;;;;;;;;;;;11.24;62.03;101343.81;1054305;28;752;-61
2022/01/06 04:21:27;;;;;;;;;;;;;;;11.22;62.25;101343.91;1053217;28;1152;-60
2022/01/06 04:22:18;;;;;;;;;;;;;;;11.22;61.58;101343.91;1054042;28;622;-61
2022/01/06 04:23:08;;;;;;;;;;;;;;;11.21;61.80;101344.84;1054080;28;688;-60
2022/01/06 04:23:59;;;;;;;;;;;;;;;11.23;61.75;101350.09;1054008;28;741;-61
2022/01/06 04:24:49;;;;;;;;;;;;;;;11.22;61.89;101348.38;1054194;28;625;-60
2022/01/06 04:25:39;;;;;;;;;;;;;;;11.23;61.85;101355.44;1053978;28;747;-60
2022/01/06 04:26:30;;;;;;;;;;;;;;;11.22;62.16;101349.25;1052748;28;681;-60
2022/01/06 04:27:20;;;;;;;;;;;;;;;11.21;62.08;101352.84;1052988;28;692;-60
2022/01/06 04:28:11;;;;;;;;;;;;;;;11.22;62.09;101351.91;1053950;28;814;-60
2022/01/06 04:29:01;;;;;;;;;;;;;;;11.22;61.71;101346.56;1052934;28;614;-60
2022/01/06 04:29:51;;;;;;;;;;;;;;;11.22;61.57;101351.91;1053614;28;661;-60
2022/01/06 04:30:42;;;;;;;;;;;;;;;11.23;61.73;101350.97;1050277;28;610;-59
2022/01/06 04:31:32;;;;;;;;;;;;;;;11.22;61.98;101349.25;1052275;28;733;-60
2022/01/06 04:32:23;;;;;;;;;;;;;;;11.25;61.93;101357.06;1053972;28;742;-59
2022/01/06 04:33:13;;;;;;;;;;;;;;;11.23;61.63;101350.97;1052891;28;666;-59
2022/01/06 04:34:03;;;;;;;;;;;;;;;11.23;61.85;101353.63;1053107;28;646;-59
2022/01/06 04:34:54;;;;;;;;;;;;;;;11.24;62.26;101354.50;1054072;28;851;-59
2022/01/06 04:35:44;;;;;;;;;;;;;;;11.24;62.11;101358.03;1054202;28;787;-59
2022/01/06 04:36:35;;;;;;;;;;;;;;;11.24;61.55;101358.03;1052896;28;954;-59